Time;durP1;ratioP1;P1;durP2;ratioP2;P2;SDS_P1;SDS_P2;PMS_P1;PMS_P2;Temp;Humidity;BMP_temperature;BMP_pressure;BME280_temperature;BME280_humidity;BME280_pressure;Samples;Min_cycle;Max_cycle;Signal;HPM_P1;HPM_P2
2022/09/25 00:00:33;;;;;;;1.00;0.90;;;14.50;99.90;;;;;;5047397;28;20088;-43
2022/09/25 00:03:00;;;;;;;1.00;1.00;;;14.30;99.90;;;;;;5029748;28;20112;-42
2022/09/25 00:05:26;;;;;;;1.20;1.10;;;14.30;99.90;;;;;;5047650;28;20025;-42
2022/09/25 00:07:55;;;;;;;0.90;0.90;;;14.30;99.90;;;;;;5047445;28;20025;-41
2022/09/25 00:10:24;;;;;;;1.00;1.00;;;14.40;99.90;;;;;;5047305;28;20079;-42
2022/09/25 00:12:50;;;;;;;0.77;0.77;;;14.30;99.90;;;;;;5047242;28;20573;-42
2022/09/25 00:15:16;;;;;;;1.02;0.93;;;14.10;99.90;;;;;;5047599;28;20013;-41
2022/09/25 00:17:42;;;;;;;1.10;1.00;;;13.90;99.90;;;;;;5047674;28;20496;-42
2022/09/25 00:20:09;;;;;;;1.00;1.00;;;14.00;99.90;;;;;;5047201;28;20048;-42
2022/09/25 00:22:34;;;;;;;1.00;1.00;;;14.00;99.90;;;;;;5047262;28;20057;-42
2022/09/25 00:25:02;;;;;;;0.95;0.90;;;14.20;99.90;;;;;;5047323;28;20106;-43
2022/09/25 00:27:28;;;;;;;0.90;0.90;;;14.20;99.90;;;;;;5047413;28;20037;-42
2022/09/25 00:29:53;;;;;;;0.80;0.80;;;14.20;99.90;;;;;;5045453;28;20519;-42
2022/09/25 00:32:19;;;;;;;0.80;0.80;;;14.10;99.90;;;;;;5047138;28;20051;-41
2022/09/25 00:34:45;;;;;;;0.90;0.90;;;14.10;99.90;;;;;;5047386;28;20036;-43
2022/09/25 00:37:11;;;;;;;1.17;1.02;;;14.10;99.90;;;;;;5047578;28;20029;-43
2022/09/25 00:39:37;;;;;;;1.08;1.02;;;14.20;99.90;;;;;;5046556;28;20021;-42
2022/09/25 00:42:03;;;;;;;1.35;1.20;;;14.30;99.90;;;;;;5047081;28;20038;-42
2022/09/25 00:44:56;;;;;;;1.27;0.93;;;14.40;99.90;;;;;;5047248;28;20037;-42
2022/09/25 00:47:42;;;;;;;1.23;1.08;;;14.30;99.90;;;;;;5046955;28;20033;-42
2022/09/25 00:50:21;;;;;;;1.58;1.48;;;14.40;99.90;;;;;;5046181;28;20048;-43
2022/09/25 00:52:49;;;;;;;1.20;1.10;;;14.40;99.90;;;;;;5046982;28;20237;-41
2022/09/25 00:55:15;;;;;;;1.05;0.95;;;14.20;99.90;;;;;;5047219;28;20114;-42
2022/09/25 00:57:45;;;;;;;1.40;1.30;;;14.10;99.90;;;;;;5046558;28;20033;-42
2022/09/25 01:00:12;;;;;;;1.40;1.30;;;14.10;99.90;;;;;;5046985;28;20507;-42
2022/09/25 01:02:40;;;;;;;1.30;1.17;;;;;;;;;;5046231;28;20429;-42
2022/09/25 01:05:09;;;;;;;1.40;1.30;;;13.70;99.90;;;;;;5046408;28;20036;-42
2022/09/25 01:07:38;;;;;;;1.52;1.42;;;13.40;99.90;;;;;;5046148;28;20598;-41
2022/09/25 01:10:06;;;;;;;1.10;1.00;;;13.80;99.90;;;;;;5046295;28;20021;-42
2022/09/25 01:12:42;;;;;;;0.88;0.88;;;13.60;99.90;;;;;;5046212;28;20044;-42
2022/09/25 01:15:11;;;;;;;1.20;1.10;;;13.80;99.90;;;;;;5046202;28;20141;-43
2022/09/25 01:18:19;;;;;;;1.30;1.20;;;13.70;99.90;;;;;;5046535;28;20515;-43
2022/09/25 01:21:04;;;;;;;1.30;1.20;;;13.70;99.90;;;;;;5046498;28;20033;-42
2022/09/25 01:23:48;;;;;;;;;;;13.70;99.90;;;;;;5046463;28;20029;-42
2022/09/25 01:26:50;;;;;;;1.60;1.40;;;13.60;99.90;;;;;;5046528;28;20031;-42
2022/09/25 01:29:27;;;;;;;1.33;1.23;;;;;;;;;;5046292;28;20400;-41
2022/09/25 01:32:03;;;;;;;1.58;1.48;;;;;;;;;;5046204;28;20129;-41
2022/09/25 01:34:40;;;;;;;1.95;1.40;;;;;;;;;;5045805;28;20025;-42
2022/09/25 01:37:10;;;;;;;1.63;1.30;;;;;;;;;;5045993;28;20028;-42
2022/09/25 01:39:38;;;;;;;1.60;1.50;;;;;;;;;;5045391;28;20115;-42
2022/09/25 01:42:13;;;;;;;1.25;1.15;;;;;;;;;;5045404;28;20099;-42
2022/09/25 01:44:45;;;;;;;1.30;1.20;;;;;;;;;;5045414;28;20067;-42
2022/09/25 01:47:13;;;;;;;1.65;1.50;;;;;;;;;;5046084;28;20029;-42
2022/09/25 01:49:52;;;;;;;1.40;1.30;;;;;;;;;;5045698;28;20060;-43
2022/09/25 01:52:22;;;;;;;1.70;1.55;;;;;;;;;;5045502;28;20587;-43
2022/09/25 01:54:54;;;;;;;1.50;1.40;;;;;;;;;;5045042;28;20170;-41
2022/09/25 01:57:25;;;;;;;1.77;1.67;;;;;;;;;;5045465;28;20049;-42
2022/09/25 02:00:07;;;;;;;1.38;1.27;;;;;;;;;;5045242;28;20462;-42
2022/09/25 02:02:37;;;;;;;1.83;1.73;;;;;;;;;;5045038;28;20052;-42
2022/09/25 02:05:16;;;;;;;1.83;1.60;;;;;;;;;;5045154;28;20024;-43
2022/09/25 02:07:44;;;;;;;1.60;1.50;;;;;;;;;;5045613;28;20108;-43
2022/09/25 02:10:23;;;;;;;1.60;1.50;;;;;;;;;;5045218;28;20083;-42
2022/09/25 02:12:51;;;;;;;1.17;1.10;;;;;;;;;;5044601;28;20506;-42
2022/09/25 02:15:31;;;;;;;1.65;1.55;;;;;;;;;;5045088;28;20044;-42
2022/09/25 02:20:49;;;;;;;1.50;1.40;;;;;;;;;;5045551;28;20086;-43
2022/09/25 02:23:21;;;;;;;1.73;1.63;;;;;;;;;;5045474;28;20115;-42
2022/09/25 02:25:50;;;;;;;1.38;1.27;;;;;;;;;;5044564;28;20021;-41
2022/09/25 02:28:16;;;;;;;1.95;1.80;;;;;;;;;;5045799;28;20044;-41
2022/09/25 02:30:45;;;;;;;1.55;1.38;;;;;;;;;;5045992;28;20025;-41
2022/09/25 02:33:11;;;;;;;1.77;1.60;;;;;;;;;;5045722;28;20047;-42
2022/09/25 06:21:24;;;;;;;1.70;1.60;;;;;;;;;;5045929;28;20135;-43
2022/09/25 06:23:50;;;;;;;1.70;1.60;;;;;;;;;;5047009;28;20555;-43
2022/09/25 06:26:18;;;;;;;1.50;1.40;;;;;;;;;;5047036;28;20033;-42
2022/09/25 06:28:45;;;;;;;1.60;1.50;;;;;;;;;;5047028;28;20396;-43
2022/09/25 06:31:11;;;;;;;2.70;1.90;;;;;;;;;;5046852;28;20017;-42
2022/09/25 06:33:38;;;;;;;3.50;2.28;;;;;;;;;;5046766;28;20535;-42
2022/09/25 06:36:04;;;;;;;1.40;1.30;;;;;;;;;;5047004;28;20017;-44
2022/09/25 06:38:33;;;;;;;1.38;1.27;;;;;;;;;;5046655;28;20120;-43
2022/09/25 06:40:59;;;;;;;1.67;1.45;;;;;;;;;;5046713;28;20070;-42
2022/09/25 06:43:25;;;;;;;1.50;1.40;;;;;;;;;;5048016;28;20112;-43
2022/09/25 06:45:51;;;;;;;1.42;1.33;;;;;;;;;;5047576;28;20017;-42
2022/09/25 06:48:17;;;;;;;1.42;1.33;;;;;;;;;;5048314;28;20657;-42
2022/09/25 06:50:48;;;;;;;1.60;1.50;;;;;;;;;;5048327;28;20025;-43
2022/09/25 06:53:14;;;;;;;1.52;1.42;;;;;;;;;;5048459;28;20044;-43
2022/09/25 06:55:41;;;;;;;1.48;1.27;;;;;;;;;;5047714;28;20021;-42
2022/09/25 06:58:08;;;;;;;1.30;1.20;;;;;;;;;;5046350;28;20090;-42
2022/09/25 07:00:34;;;;;;;1.58;1.48;;;;;;;;;;5046143;28;20511;-43
2022/09/25 07:05:47;;;;;;;2.50;1.60;;;;;;;;;;5046851;28;20672;-43
2022/09/25 07:08:15;;;;;;;2.08;1.80;;;;;;;;;;5046559;28;20035;-43
2022/09/25 07:10:51;;;;;;;1.67;1.55;;;;;;;;;;5046764;28;20021;-43
2022/09/25 07:13:18;;;;;;;1.27;1.17;;;;;;;;;;5046207;28;20033;-42
2022/09/25 07:15:50;;;;;;;1.63;1.52;;;;;;;;;;5046356;28;20032;-42
2022/09/25 07:18:17;;;;;;;1.73;1.63;;;;;;;;;;5046992;28;20112;-42
2022/09/25 07:20:45;;;;;;;2.25;1.80;;;;;;;;;;5046006;28;20040;-42
2022/09/25 07:23:12;;;;;;;2.00;1.67;;;;;;;;;;5046477;28;20076;-43
2022/09/25 07:25:37;;;;;;;2.35;2.00;;;;;;;;;;5045735;28;20064;-43
2022/09/25 07:28:03;;;;;;;2.08;1.88;;;;;;;;;;5045814;28;20044;-44
2022/09/25 07:30:29;;;;;;;1.70;1.60;;;;;;;;;;5043408;28;20401;-42
2022/09/25 07:32:57;;;;;;;1.65;1.55;;;;;;;;;;5045522;28;20033;-43
2022/09/25 07:35:23;;;;;;;1.60;1.50;;;;;;;;;;5046914;28;20090;-43
2022/09/25 07:37:49;;;;;;;1.75;1.65;;;;;;;;;;5029648;28;20086;-42
2022/09/25 07:40:15;;;;;;;1.80;1.65;;;;;;;;;;5042901;28;20032;-42
2022/09/25 07:42:41;;;;;;;1.75;1.50;;;;;;;;;;5045626;28;20411;-42
2022/09/25 07:45:07;;;;;;;1.70;1.60;;;;;;;;;;5047943;28;20036;-44
2022/09/25 07:47:33;;;;;;;1.20;1.10;;;;;;;;;;5048166;28;20025;-43
2022/09/25 07:50:00;;;;;;;1.55;1.45;;;;;;;;;;5048955;28;20381;-43
2022/09/25 07:52:26;;;;;;;1.73;1.63;;;;;;;;;;5049543;28;20033;-43
2022/09/25 07:54:53;;;;;;;1.50;1.30;;;;;;;;;;5049950;28;20116;-43
2022/09/25 07:57:19;;;;;;;1.45;1.35;;;;;;;;;;5046371;28;20036;-43
2022/09/25 07:59:46;;;;;;;1.45;1.35;;;;;;;;;;5042508;28;20029;-42
2022/09/25 08:02:12;;;;;;;1.67;1.58;;;;;;;;;;5047569;28;20029;-43
2022/09/25 08:04:38;;;;;;;1.40;1.30;;;;;;;;;;5049777;28;20125;-43
2022/09/25 08:07:04;;;;;;;1.60;1.50;;;;;;;;;;5047811;28;20119;-43
2022/09/25 08:09:30;;;;;;;1.35;1.25;;;;;;;;;;5050270;28;20021;-42
2022/09/25 08:11:57;;;;;;;1.45;1.35;;;;;;;;;;5049081;28;20171;-43
2022/09/25 08:14:24;;;;;;;1.40;1.30;;;;;;;;;;5050317;28;20017;-44
2022/09/25 08:16:54;;;;;;;1.38;1.27;;;;;;;;;;5048655;28;20025;-44
2022/09/25 08:19:22;;;;;;;1.60;1.38;;;;;;;;;;5050407;28;20340;-44
2022/09/25 08:21:49;;;;;;;1.33;1.23;;;;;;;;;;5048269;28;20090;-42
2022/09/25 08:24:15;;;;;;;2.10;1.23;;;;;;;;;;5050410;28;20041;-43
2022/09/25 08:26:41;;;;;;;1.42;1.30;;;;;;;;;;5048500;28;20029;-43
2022/09/25 08:29:08;;;;;;;1.30;1.20;;;;;;;;;;5048444;28;20079;-43
2022/09/25 08:31:34;;;;;;;1.40;1.30;;;;;;;;;;5042316;28;20459;-43
2022/09/25 08:34:01;;;;;;;1.20;1.10;;;;;;;;;;5042370;28;20480;-42
2022/09/25 08:36:27;;;;;;;1.40;1.30;;;;;;;;;;5048489;28;20037;-43
2022/09/25 08:38:55;;;;;;;1.38;1.17;;;;;;;;;;5049842;28;20028;-42
2022/09/25 08:41:21;;;;;;;2.28;1.40;;;;;;;;;;5047606;28;20025;-44
2022/09/25 08:43:56;;;;;;;1.30;1.20;;;;;;;;;;5050612;28;20056;-42
2022/09/25 08:49:25;;;;;;;1.20;1.10;;;;;;;;;;5049612;28;20538;-42
2022/09/25 08:51:52;;;;;;;1.30;1.20;;;;;;;;;;5046813;28;20503;-43
2022/09/25 08:54:22;;;;;;;1.17;1.08;;;;;;;;;;5049815;28;20029;-43
2022/09/25 08:56:51;;;;;;;0.90;0.90;;;;;;;;;;5048142;28;20142;-42
2022/09/25 08:59:22;;;;;;;0.90;0.90;;;;;;;;;;5049312;28;20033;-43
2022/09/25 09:01:52;;;;;;;0.90;0.90;;;;;;;;;;5047850;28;20475;-43
2022/09/25 09:04:26;;;;;;;0.93;0.88;;;;;;;;;;5049215;28;20606;-42
2022/09/25 09:06:55;;;;;;;1.10;1.10;;;;;;;;;;5048361;28;20037;-42
2022/09/25 09:09:26;;;;;;;0.90;0.85;;;;;;;;;;5050155;28;20017;-42
2022/09/25 09:11:58;;;;;;;1.00;0.90;;;;;;;;;;5048810;28;20032;-42
2022/09/25 09:14:28;;;;;;;1.30;0.98;;;;;;;;;;5050382;28;20017;-42
2022/09/25 09:17:03;;;;;;;0.70;0.70;;;;;;;;;;5047921;28;20370;-42
2022/09/25 09:19:29;;;;;;;0.80;0.80;;;;;;;;;;5048697;28;20029;-41
2022/09/25 09:21:56;;;;;;;0.95;0.90;;;;;;;;;;5048835;28;20063;-42
2022/09/25 09:24:31;;;;;;;0.70;0.70;;;;;;;;;;5050013;28;20048;-43
2022/09/25 09:27:02;;;;;;;0.70;0.70;;;;;;;;;;5048981;28;20037;-42
2022/09/25 09:29:38;;;;;;;1.10;0.90;;;;;;;;;;5049962;28;20029;-42
2022/09/25 09:32:16;;;;;;;0.60;0.60;;;;;;;;;;5049304;28;20025;-42
2022/09/25 09:34:56;;;;;;;0.85;0.85;;;;;;;;;;5031258;28;20024;-43
2022/09/25 09:37:31;;;;;;;0.60;0.60;;;;;;;;;;5049176;28;20040;-42
2022/09/25 09:40:20;;;;;;;0.80;0.80;;;;;;;;;;5051132;28;20072;-42
2022/09/25 09:42:50;;;;;;;0.90;0.90;;;;;;;;;;5042199;28;20535;-42
2022/09/25 09:45:20;;;;;;;0.70;0.60;;;;;;;;;;5049192;28;20025;-43
2022/09/25 09:47:51;;;;;;;1.20;1.10;;;;;;;;;;5047937;28;20032;-42
2022/09/25 09:50:20;;;;;;;0.70;0.70;;;;;;;;;;5048402;28;20033;-43
2022/09/25 09:52:49;;;;;;;0.90;0.90;;;;;;;;;;5049148;28;20492;-42
2022/09/25 09:55:35;;;;;;;0.90;0.90;;;;;;;;;;5049055;28;20032;-43
2022/09/25 09:58:05;;;;;;;0.75;0.75;;;;;;;;;;5048893;28;20095;-42
2022/09/25 10:00:32;;;;;;;0.93;0.82;;;;;;;;;;5046316;28;20036;-42
2022/09/25 10:03:21;;;;;;;1.08;1.00;;;;;;;;;;5046266;28;20036;-42
2022/09/25 10:05:58;;;;;;;1.25;1.15;;;;;;;;;;5034340;28;20120;-42
2022/09/25 10:08:24;;;;;;;1.00;0.90;;;;;;;;;;5047835;28;20090;-42
2022/09/25 10:10:54;;;;;;;0.90;0.90;;;;;;;;;;5045626;28;20024;-42
2022/09/25 10:13:22;;;;;;;0.85;0.85;;;;;;;;;;5047919;28;20050;-43
2022/09/25 10:15:57;;;;;;;1.35;1.15;;;;;;;;;;5045899;28;20035;-42
2022/09/25 10:18:25;;;;;;;1.02;1.02;;;;;;;;;;5047913;28;20052;-42
2022/09/25 10:20:55;;;;;;;0.80;0.80;;;;;;;;;;5045994;28;20040;-43
2022/09/25 10:23:27;;;;;;;0.90;0.90;;;;;;;;;;5030244;28;20378;-43
2022/09/25 10:25:54;;;;;;;0.80;0.80;;;;;;;;;;5045818;28;20032;-43
2022/09/25 10:28:34;;;;;;;0.98;0.80;;;;;;;;;;5047859;28;20112;-43
2022/09/25 10:31:02;;;;;;;1.10;1.00;;;;;;;;;;5045387;28;20083;-42
2022/09/25 10:33:30;;;;;;;1.00;1.00;;;;;;;;;;5046836;28;20459;-42
2022/09/25 10:35:56;;;;;;;0.90;0.90;;;;;;;;;;5045325;28;20017;-43
2022/09/25 10:38:43;;;;;;;0.82;0.82;;;;;;;;;;5045576;28;20136;-43
2022/09/25 10:41:12;;;;;;;0.82;0.82;;;;;;;;;;5044916;28;20062;-42
2022/09/25 10:44:04;;;;;;;0.98;0.93;;;;;;;;;;5040356;28;20035;-43
2022/09/25 10:52:18;;;;;;;1.00;1.00;;;;;;;;;;5008217;28;20489;-42
2022/09/25 10:54:44;;;;;;;0.98;0.98;;;;;;;;;;5046584;28;20107;-42
2022/09/25 10:57:21;;;;;;;0.90;0.90;;;;;;;;;;5046003;28;20623;-44
2022/09/25 10:59:49;;;;;;;0.70;0.70;;;;;;;;;;5047164;28;20025;-44
2022/09/25 11:02:34;;;;;;;1.25;1.02;;;;;;;;;;5047864;28;20512;-43
2022/09/25 11:05:00;;;;;;;0.82;0.82;;;;;;;;;;5029734;28;20029;-44
2022/09/25 11:07:27;;;;;;;0.82;0.82;;;;;;;;;;5047499;28;20037;-43
2022/09/25 11:09:53;;;;;;;0.60;0.60;;;;;;;;;;5047143;28;20021;-44
2022/09/25 11:12:25;;;;;;;0.70;0.70;;;;;;;;;;5028834;28;20036;-43
2022/09/25 11:14:57;;;;;;;0.90;0.90;;;;;;;;;;5046890;28;20687;-44
2022/09/25 11:17:36;;;;;;;0.90;0.90;;;;;;;;;;5030414;28;20029;-43
2022/09/25 11:20:17;;;;;;;0.70;0.70;;;;;;;;;;5048028;28;20032;-44
2022/09/25 11:22:55;;;;;;;0.77;0.77;;;;;;;;;;5047069;28;20036;-43
2022/09/25 11:25:21;;;;;;;0.90;0.90;;;;;;;;;;5048916;28;20104;-44
2022/09/25 11:27:52;;;;;;;0.70;0.70;;;;;;;;;;5049407;28;20139;-41
2022/09/25 11:30:19;;;;;;;0.80;0.80;;;;;;;;;;5048958;28;20491;-41
2022/09/25 11:32:52;;;;;;;0.75;0.75;;;;;;;;;;5049183;28;20124;-42
2022/09/25 11:35:41;;;;;;;0.80;0.80;;;;;;;;;;5048879;28;20063;-42
2022/09/25 11:38:14;;;;;;;0.60;0.60;;;;;;;;;;5029343;28;20033;-42
2022/09/25 11:43:55;;;;;;;0.77;0.77;;;;;;;;;;5045986;28;20041;-42
2022/09/25 11:46:28;;;;;;;0.50;0.50;;;;;;;;;;5047654;28;20407;-43
2022/09/25 11:49:03;;;;;;;0.70;0.70;;;;;;;;;;5048366;28;20463;-42
2022/09/25 11:51:38;;;;;;;0.60;0.60;;;;;;;;;;5049301;28;20032;-43
2022/09/25 11:54:23;;;;;;;0.70;0.70;;;;;;;;;;5048599;28;20641;-42
2022/09/25 11:56:56;;;;;;;0.60;0.60;;;;;;;;;;5047687;28;20124;-44
2022/09/25 11:59:37;;;;;;;0.98;0.98;;;;;;;;;;5048418;28;20404;-44
2022/09/25 12:02:12;;;;;;;1.30;1.00;;;;;;;;;;5031005;28;20041;-44
2022/09/25 12:04:45;;;;;;;0.80;0.80;;;;;;;;;;5048118;28;20112;-44
2022/09/25 12:07:21;;;;;;;0.70;0.70;;;;;;;;;;5030591;28;20531;-45
2022/09/25 12:10:05;;;;;;;0.70;0.70;;;;;;;;;;5044950;28;20071;-44
2022/09/25 12:12:35;;;;;;;0.80;0.75;;;;;;;;;;5048388;28;20036;-44
2022/09/25 12:15:24;;;;;;;1.25;0.70;;;;;;;;;;5047932;28;20028;-44
2022/09/25 12:17:59;;;;;;;0.60;0.60;;;;;;;;;;5048415;28;20032;-44
2022/09/25 12:20:29;;;;;;;0.70;0.70;;;;;;;;;;5047898;28;20068;-45
2022/09/25 12:23:02;;;;;;;0.73;0.73;;;;;;;;;;5047613;28;20037;-44
2022/09/25 12:25:48;;;;;;;0.80;0.80;;;;;;;;;;5048097;28;20051;-44
2022/09/25 12:28:25;;;;;;;0.70;0.70;;;;;;;;;;5048213;28;20032;-44
2022/09/25 12:30:54;;;;;;;0.73;0.73;;;;;;;;;;5047748;28;20021;-44
2022/09/25 12:33:47;;;;;;;0.60;0.60;;;;;;;;;;5048198;28;20021;-45
2022/09/25 12:36:23;;;;;;;0.65;0.65;;;;;;;;;;5044419;28;20040;-45
2022/09/25 12:38:54;;;;;;;0.55;0.55;;;;;;;;;;5047665;28;20052;-44
2022/09/25 12:41:28;;;;;;;0.57;0.57;;;;;;;;;;5047132;28;20108;-44
2022/09/25 12:44:01;;;;;;;0.50;0.50;;;;;;;;;;5047284;28;20027;-43
2022/09/25 12:46:31;;;;;;;0.60;0.60;;;;;;;;;;5047137;28;20056;-46
2022/09/25 12:49:16;;;;;;;0.60;0.60;;;;;;;;;;5047750;28;20025;-45
2022/09/25 12:51:52;;;;;;;0.50;0.50;;;;;;;;;;5047276;28;20032;-43
2022/09/25 12:54:24;;;;;;;0.55;0.55;;;;;;;;;;5047711;28;20115;-42
2022/09/25 12:57:10;;;;;;;3.60;0.77;;;;;;;;;;5046783;28;20025;-44
2022/09/25 12:59:40;;;;;;;0.50;0.50;;;;;;;;;;5006665;28;20061;-44
2022/09/25 13:02:12;;;;;;;0.60;0.60;;;;;;;;;;5047088;28;20032;-43
2022/09/25 13:04:47;;;;;;;0.80;0.70;;;;;;;;;;5046263;28;20102;-45
2022/09/25 13:07:31;;;;;;;1.00;0.90;;;;;;;;;;5046916;28;20064;-43
2022/09/25 13:09:57;;;;;;;1.00;0.77;;;;;;;;;;5046602;28;20048;-43
2022/09/25 13:12:28;;;;;;;0.88;0.77;;;;;;;;;;5047263;28;20052;-44
2022/09/25 13:14:58;;;;;;;0.90;0.90;;;;;;;;;;5046045;28;20452;-44
2022/09/25 13:17:24;;;;;;;0.80;0.80;;;;;;;;;;5047322;28;20094;-43
2022/09/25 13:19:50;;;;;;;1.10;1.00;;;;;;;;;;5045743;28;20032;-43
2022/09/25 13:22:23;;;;;;;0.80;0.80;;;;;;;;;;5046813;28;20463;-43
2022/09/25 13:25:04;;;;;;;0.85;0.85;;;;;;;;;;5028928;28;20025;-44
2022/09/25 13:27:42;;;;;;;0.73;0.73;;;;;;;;;;5046603;28;20025;-45
2022/09/25 13:30:19;;;;;;;0.88;0.70;;;;;;;;;;5033751;28;20037;-43
2022/09/25 13:32:49;;;;;;;0.75;0.75;;;;;;;;;;5047056;28;20111;-43
2022/09/25 13:35:17;;;;;;;1.00;1.00;;;;;;;;;;5027986;28;20472;-44
2022/09/25 13:37:44;;;;;;;0.90;0.80;;;;;;;;;;5045946;28;20188;-44
2022/09/25 13:43:19;;;;;;;0.70;0.70;;;;;;;;;;5038534;28;20044;-43
2022/09/25 13:45:50;;;;;;;0.88;0.88;;;;;;;;;;5046413;28;20095;-45
2022/09/25 13:48:31;;;;;;;0.80;0.80;;;;;;;;;;5045212;28;20101;-45
2022/09/25 13:51:19;;;;;;;0.50;0.50;;;;;;;;;;5046565;28;20027;-45
2022/09/25 13:54:02;;;;;;;0.60;0.60;;;;;;;;;;5046737;28;20025;-44
2022/09/25 13:56:29;;;;;;;0.63;0.63;;;;;;;;;;5047334;28;20413;-43
2022/09/25 13:59:00;;;;;;;0.73;0.73;;;;;;;;;;5046763;28;20542;-43
2022/09/25 14:01:50;;;;;;;0.57;0.57;;;;;;;;;;5047149;28;20052;-44
2022/09/25 14:04:28;;;;;;;0.80;0.80;;;;;;;;;;5037160;28;20052;-43
2022/09/25 14:06:57;;;;;;;0.80;0.80;;;;;;;;;;5046747;28;20025;-43
2022/09/25 14:09:28;;;;;;;0.80;0.80;;;;;;;;;;5047278;28;20025;-43
2022/09/25 14:12:11;;;;;;;0.60;0.60;;;;;;;;;;5046994;28;20025;-43
2022/09/25 14:14:41;;;;;;;0.50;0.50;;;;;;;;;;5047745;28;20033;-43
2022/09/25 14:17:12;;;;;;;0.70;0.70;;;;;;;;;;5046113;28;20033;-43
2022/09/25 14:19:41;;;;;;;0.50;0.50;;;;;;;;;;5045803;28;20107;-43
2022/09/25 14:22:07;;;;;;;0.60;0.60;;;;;;;;;;5045373;28;20540;-41
2022/09/25 14:24:35;;;;;;;0.70;0.70;;;;;;;;;;5045778;28;20040;-43
2022/09/25 14:27:01;;;;;;;0.55;0.55;;;;;;;;;;5046302;28;20063;-43
2022/09/25 14:29:32;;;;;;;0.60;0.60;;;;;;;;;;5046284;28;20083;-43
2022/09/25 14:32:17;;;;;;;0.68;0.68;;;;;;;;;;5046594;28;20035;-43
2022/09/25 14:34:54;;;;;;;0.80;0.80;;;;;;;;;;5045298;28;20013;-43
2022/09/25 14:37:26;;;;;;;0.85;0.70;;;;;;;;;;5045416;28;20048;-43
2022/09/25 14:40:32;;;;;;;0.70;0.70;;;;;;;;;;5036659;28;20078;-42
2022/09/25 14:43:15;;;;;;;0.60;0.60;;;;;;;;;;4970738;28;20049;-43
2022/09/25 14:45:53;;;;;;;0.85;0.80;;;;;;;;;;5033964;28;20075;-42
2022/09/25 14:48:22;;;;;;;0.77;0.77;;;;;;;;;;5025913;28;20075;-45
2022/09/25 14:50:55;;;;;;;0.60;0.60;;;;;;;;;;5035394;28;20021;-42
2022/09/25 14:53:27;;;;;;;0.75;0.75;;;;;;;;;;5043725;28;20021;-42
2022/09/25 14:55:54;;;;;;;0.80;0.80;;;;;;;;;;5043735;28;20025;-42
2022/09/25 14:58:23;;;;;;;0.80;0.80;;;;;;;;;;5043882;28;20028;-43
2022/09/25 15:00:51;;;;;;;0.80;0.80;;;;;;;;;;5043946;28;20017;-42
2022/09/25 15:03:18;;;;;;;0.65;0.65;;;;;;;;;;5044220;28;20021;-43
2022/09/25 15:05:47;;;;;;;1.00;0.90;;;;;;;;;;5043515;28;20116;-43
2022/09/25 15:08:35;;;;;;;0.90;0.90;;;;;;;;;;5043410;28;20029;-43
2022/09/25 15:11:14;;;;;;;0.85;0.85;;;;;;;;;;5044698;28;20487;-44
2022/09/25 15:13:41;;;;;;;0.73;0.73;;;;;;;;;;5043670;28;20104;-43
2022/09/25 15:18:58;;;;;;;0.80;0.80;;;;;;;;;;5044171;28;20142;-43
2022/09/25 15:21:31;;;;;;;0.73;0.70;;;;;;;;;;5044819;28;20029;-43
2022/09/25 15:24:05;;;;;;;0.67;0.67;;;;;;;;;;5043582;28;20630;-43
2022/09/25 15:26:35;;;;;;;0.60;0.60;;;;;;;;;;5043946;28;20044;-43
2022/09/25 15:29:01;;;;;;;0.77;0.77;;;;;;;;;;5044270;28;20021;-43
2022/09/25 15:31:35;;;;;;;0.68;0.68;;;;;;;;;;5043924;28;20075;-44
2022/09/25 15:34:12;;;;;;;0.70;0.70;;;;;;;;;;5044518;28;20183;-43
2022/09/25 15:36:38;;;;;;;0.70;0.70;;;;;;;;;;5044519;28;20037;-43
2022/09/25 15:39:15;;;;;;;0.60;0.60;;;;;;;;;;5042135;28;20044;-43
2022/09/25 15:41:42;;;;;;;0.50;0.50;;;;;;;;;;5037715;28;20637;-42
2022/09/25 15:44:22;;;;;;;0.60;0.60;;;;;;;;;;5038091;28;20892;-42
2022/09/25 15:46:50;;;;;;;0.60;0.60;;;;;;;;;;5049819;28;20101;-42
2022/09/25 15:49:35;;;;;;;0.63;0.63;;;;;;;;;;5044847;28;20444;-43
2022/09/25 15:52:11;;;;;;;0.50;0.50;;;;;;;;;;5025431;28;20037;-42
2022/09/25 15:54:43;;;;;;;1.00;0.90;;;;;;;;;;5032147;28;20098;-42
2022/09/25 15:57:14;;;;;;;0.80;0.52;;;;;;;;;;5044543;28;20045;-43
2022/09/25 16:04:44;;;;;;;1.02;0.80;;;;;;;;;;5044270;28;20518;-42
2022/09/25 16:05:13;;;;;;;0.50;0.50;;;;;;;;;;5046141;28;20044;-42
2022/09/25 16:07:39;;;;;;;0.60;0.60;;;;;;;;;;5046539;28;20028;-43
2022/09/25 16:10:08;;;;;;;0.43;0.43;;;;;;;;;;5048280;28;20074;-44
2022/09/25 16:12:41;;;;;;;0.70;0.70;;;;;;;;;;5042566;28;20037;-42
2022/09/25 16:15:26;;;;;;;0.60;0.60;;;;;;;;;;5045452;28;20107;-43
2022/09/25 16:17:55;;;;;;;0.50;0.50;;;;;;;;;;5047528;28;20031;-43
2022/09/25 16:20:40;;;;;;;0.40;0.40;;;;;;;;;;5046018;28;20106;-42
2022/09/25 16:23:18;;;;;;;0.40;0.40;;;;;;;;;;5045944;28;20029;-43
2022/09/25 16:25:44;;;;;;;0.40;0.40;;;;;;;;;;5046642;28;20116;-43
2022/09/25 16:29:28;;;;;;;0.50;0.50;;;;;;;;;;5113214;27;20224;-41
2022/09/25 16:31:59;;;;;;;0.45;0.45;;;;;;;;;;5099689;28;20019;-42
2022/09/25 16:34:29;;;;;;;0.45;0.45;;;;;;;;;;5111324;28;20016;-41
2022/09/25 16:36:58;;;;;;;0.30;0.30;;;;;;;;;;5120994;27;20053;-42
2022/09/25 16:39:28;;;;;;;0.50;0.50;;;;;;;;;;5103074;27;20490;-42
2022/09/25 16:41:55;;;;;;;0.38;0.38;;;;;;;;;;5098959;28;20030;-41
2022/09/25 16:44:34;;;;;;;0.47;0.47;;;;;;;;;;5104740;28;20658;-40
2022/09/25 16:47:00;;;;;;;0.50;0.50;;;;;;;;;;5091508;28;20028;-42
2022/09/25 16:49:26;;;;;;;0.40;0.40;;;;;;;;;;5099848;28;20024;-42
2022/09/25 16:51:53;;;;;;;0.40;0.40;;;;;;;;;;5104285;28;20028;-41
2022/09/25 16:54:20;;;;;;;0.63;0.60;;;;;;;;;;5111953;28;20391;-41
2022/09/25 16:56:47;;;;;;;0.65;0.57;;;;;;;;;;5113997;27;20114;-41
2022/09/25 16:59:20;;;;;;;0.40;0.40;;;;;;;;;;5121078;27;20049;-41
2022/09/25 17:01:48;;;;;;;0.57;0.57;;;;;;;;;;5106940;27;20042;-42
2022/09/25 17:04:14;;;;;;;0.50;0.50;;;;;;;;;;5100605;28;20296;-41
2022/09/25 17:06:44;;;;;;;0.40;0.40;;;;;;;;;;5107758;28;20162;-41
2022/09/25 17:09:11;;;;;;;0.40;0.40;;;;;;;;;;5106498;28;20547;-42
2022/09/25 17:11:38;;;;;;;0.50;0.50;;;;;;;;;;5107971;27;20208;-40
2022/09/25 17:14:05;;;;;;;0.50;0.47;;;;;;;;;;5108197;27;20231;-42
2022/09/25 17:16:32;;;;;;;0.60;0.60;;;;;;;;;;5079462;28;20045;-42
2022/09/25 17:18:58;;;;;;;0.50;0.50;;;;;;;;;;5108174;28;20066;-42
2022/09/25 17:21:24;;;;;;;0.43;0.40;;;;;;;;;;5113834;27;20110;-42
2022/09/25 17:23:51;;;;;;;0.52;0.52;;;;;;;;;;5105698;28;20028;-42
2022/09/25 17:26:21;;;;;;;0.52;0.52;;;;;;;;;;5111892;28;20063;-42
2022/09/25 17:28:48;;;;;;;0.50;0.50;;;;;;;;;;5104615;27;20542;-41
2022/09/25 17:31:17;;;;;;;0.60;0.60;;;;;;;;;;5116415;28;20062;-42
2022/09/25 17:33:43;;;;;;;0.73;0.73;;;;;;;;;;5111473;27;20135;-41
2022/09/25 17:36:10;;;;;;;0.68;0.68;;;;;;;;;;5104997;28;20111;-41
2022/09/25 17:38:36;;;;;;;2.08;0.60;;;;;;;;;;5106813;28;20028;-42
2022/09/25 17:41:04;;;;;;;0.50;0.50;;;;;;;;;;5089562;28;20043;-41
2022/09/25 17:43:30;;;;;;;0.60;0.60;;;;;;;;;;5097338;28;20466;-41
2022/09/25 17:45:58;;;;;;;0.60;0.60;;;;;;;;;;5097272;27;20027;-41
2022/09/25 17:48:26;;;;;;;0.50;0.50;;;;;;;;;;5094743;28;20494;-41
2022/09/25 17:50:56;;;;;;;0.60;0.60;;;;;;;;;;5099057;28;20077;-43
2022/09/25 17:53:24;;;;;;;0.57;0.57;;;;;;;;;;5092200;28;20350;-44
2022/09/25 17:55:50;;;;;;;0.55;0.55;;;;;;;;;;5094910;28;20027;-41
2022/09/25 17:58:17;;;;;;;0.50;0.50;;;;;;;;;;5086331;28;20407;-43
2022/09/25 18:00:43;;;;;;;0.40;0.40;;;;;;;;;;5093217;28;20035;-42
2022/09/25 18:03:12;;;;;;;0.43;0.43;;;;;;;;;;5095331;28;20031;-42
2022/09/25 18:05:39;;;;;;;0.50;0.50;;;;;;;;;;5089612;28;20158;-42
2022/09/25 18:08:05;;;;;;;0.70;0.68;;;;;;;;;;5087429;28;20032;-42
2022/09/25 18:10:32;;;;;;;0.47;0.47;;;;;;;;;;5094166;28;20515;-41
2022/09/25 18:12:58;;;;;;;0.68;0.60;;;;;;;;;;5093288;28;20024;-41
2022/09/25 18:15:27;;;;;;;0.60;0.50;;;;;;;;;;5091541;28;20488;-41
2022/09/25 18:17:53;;;;;;;0.47;0.47;;;;;;;;;;5098037;28;20131;-41
2022/09/25 18:23:04;;;;;;;0.90;0.68;;;;;;;;;;5091367;28;20556;-42
2022/09/25 18:25:31;;;;;;;0.50;0.50;;;;;;;;;;5090045;28;20733;-40
2022/09/25 18:27:57;;;;;;;0.55;0.40;;;;;;;;;;5094751;28;20040;-42
2022/09/25 18:30:24;;;;;;;0.45;0.45;;;;;;;;;;5092191;28;20406;-41
2022/09/25 18:32:50;;;;;;;0.50;0.43;;;;;;;;;;5085742;28;20032;-41
2022/09/25 18:35:18;;;;;;;0.50;0.50;;;;;;;;;;5096453;28;20028;-41
2022/09/25 18:37:45;;;;;;;0.43;0.43;;;;;;;;;;5091415;28;20107;-41
2022/09/25 18:40:12;;;;;;;0.45;0.43;;;;;;;;;;5097083;28;20059;-41
2022/09/25 18:42:39;;;;;;;0.35;0.35;;;;;;;;;;5091785;28;20035;-41
2022/09/25 18:45:05;;;;;;;0.50;0.50;;;;;;;;;;5092672;28;20507;-42
2022/09/25 18:47:33;;;;;;;0.50;0.50;;;;;;;;;;5102335;28;20092;-42
2022/09/25 18:50:00;;;;;;;0.75;0.75;;;;;;;;;;5097606;28;20118;-42
2022/09/25 18:52:26;;;;;;;0.50;0.50;;;;;;;;;;5094933;28;20024;-42
2022/09/25 18:54:53;;;;;;;0.55;0.55;;;;;;;;;;5097377;28;20384;-41
2022/09/25 18:57:19;;;;;;;0.68;0.60;;;;;;;;;;5087436;28;20051;-41
2022/09/25 18:59:45;;;;;;;0.57;0.57;;;;;;;;;;5082765;28;20075;-40
2022/09/25 19:02:41;;;;;;;0.60;0.60;;;;;;;;;;5101542;28;20499;-42
2022/09/25 19:05:07;;;;;;;2.15;0.60;;;;;;;;;;5082874;28;20032;-42
2022/09/25 19:07:35;;;;;;;0.90;0.70;;;;;;;;;;5089998;28;20077;-41
2022/09/25 19:10:06;;;;;;;0.70;0.70;;;;;;;;;;5104551;28;20096;-39